createdAt,value
2019-03-03T00:01:00.449Z,23.8
2019-03-03T00:02:02.614Z,23.8
2019-03-03T00:03:05.057Z,23.8
2019-03-03T00:04:07.490Z,23.9
2019-03-03T00:05:09.639Z,23.8
2019-03-03T00:06:12.065Z,23.9
2019-03-03T00:07:14.512Z,23.9
2019-03-03T00:08:16.647Z,23.9
2019-03-03T00:09:19.076Z,23.9
2019-03-03T00:10:21.499Z,23.9
2019-03-03T00:11:23.655Z,23.9
2019-03-03T00:12:26.078Z,24
2019-03-03T00:13:28.522Z,24
2019-03-03T00:14:30.958Z,24
2019-03-03T00:15:32.567Z,24
2019-03-03T00:16:34.727Z,24
2019-03-03T00:17:37.164Z,24
2019-03-03T00:18:39.301Z,24
2019-03-03T00:19:41.198Z,24
2019-03-03T00:20:43.628Z,24.1
2019-03-03T00:21:46.069Z,24.1
2019-03-03T00:22:48.200Z,24.1
2019-03-03T00:23:50.640Z,24.1
2019-03-03T00:24:53.067Z,24.1
2019-03-03T00:25:55.507Z,24.1
2019-03-03T00:26:57.931Z,24
2019-03-03T00:27:59.808Z,24
2019-03-03T00:29:02.238Z,24.1
2019-03-03T00:30:04.680Z,24.1
2019-03-03T00:31:07.130Z,24.1
2019-03-03T00:32:09.270Z,24.1
2019-03-03T00:33:11.466Z,24.1
2019-03-03T00:34:13.093Z,24.1
2019-03-03T00:35:15.268Z,24.1
2019-03-03T00:36:17.693Z,24.1
2019-03-03T00:37:20.115Z,24.2
2019-03-03T00:38:22.586Z,24.2
2019-03-03T00:39:25.018Z,24.2
2019-03-03T00:40:26.893Z,24.2
2019-03-03T00:41:29.331Z,24.2
2019-03-03T00:42:31.759Z,24.2
2019-03-03T00:43:34.179Z,24.3
2019-03-03T00:44:36.600Z,24.3
2019-03-03T00:45:38.498Z,24.3
2019-03-03T00:46:40.654Z,24.3
2019-03-03T00:47:43.087Z,24.3
2019-03-03T00:48:45.523Z,24.3
2019-03-03T00:49:47.426Z,24.3
2019-03-03T00:50:49.578Z,24.4
2019-03-03T00:51:51.738Z,24.4
2019-03-03T00:52:54.168Z,24.4
2019-03-03T00:53:56.320Z,24.4
2019-03-03T00:54:58.448Z,24.4
2019-03-03T00:56:00.608Z,24.4
2019-03-03T00:57:02.768Z,24.4
2019-03-03T00:58:05.203Z,24.4
2019-03-03T00:59:07.625Z,24.4
2019-03-03T01:00:10.059Z,24.4
2019-03-03T01:01:12.490Z,24.5
2019-03-03T01:02:14.920Z,24.5
2019-03-03T01:03:17.338Z,24.5
2019-03-03T01:04:19.220Z,24.5
2019-03-03T01:05:21.657Z,24.5
2019-03-03T01:06:23.847Z,24.5
2019-03-03T01:07:26.277Z,24.5
2019-03-03T01:08:28.712Z,24.5
2019-03-03T01:09:31.159Z,24.5
2019-03-03T01:10:33.328Z,24.5
2019-03-03T01:11:35.750Z,24.5
2019-03-03T01:12:37.629Z,24.5
2019-03-03T01:13:40.055Z,24.6
2019-03-03T01:14:42.480Z,24.6
2019-03-03T01:15:44.617Z,24.6
2019-03-03T01:16:46.767Z,24.6
2019-03-03T01:17:48.912Z,24.6
2019-03-03T01:18:51.334Z,24.6
2019-03-03T01:19:53.793Z,24.6
2019-03-03T01:20:55.927Z,24.6
2019-03-03T01:21:58.369Z,24.6
2019-03-03T01:23:00.786Z,24.6
2019-03-03T01:24:05.154Z,24.6
2019-03-03T01:25:07.323Z,24.6
2019-03-03T01:26:09.492Z,24.6
2019-03-03T01:27:26.582Z,24.6
2019-03-03T01:28:29.004Z,24.6
2019-03-03T01:29:31.439Z,24.6
2019-03-03T01:30:33.316Z,24.6
2019-03-03T01:31:35.476Z,24.6
2019-03-03T01:32:37.640Z,24.6
2019-03-03T01:33:40.089Z,24.6
2019-03-03T01:34:41.958Z,24.6
2019-03-03T01:35:44.401Z,24.6
2019-03-03T01:36:46.825Z,24.6
2019-03-03T01:37:49.255Z,24.6
2019-03-03T01:38:51.428Z,24.6
2019-03-03T01:39:53.597Z,24.6
2019-03-03T01:40:56.040Z,24.6
2019-03-03T01:41:58.469Z,24.6
2019-03-03T01:43:00.901Z,24.6
2019-03-03T01:44:03.319Z,24.6
2019-03-03T01:45:05.741Z,24.6
2019-03-03T01:46:08.172Z,24.6
2019-03-03T01:47:10.327Z,24.6
2019-03-03T01:48:12.479Z,24.6
2019-03-03T01:49:14.618Z,24.6
2019-03-03T01:50:17.066Z,24.6
2019-03-03T01:51:19.499Z,24.7
2019-03-03T01:52:21.925Z,24.7
2019-03-03T01:53:24.345Z,24.7
2019-03-03T01:54:26.501Z,24.7
2019-03-03T01:55:28.093Z,24.7
2019-03-03T01:56:30.518Z,24.7
2019-03-03T01:57:32.953Z,24.7
2019-03-03T01:58:35.379Z,24.7
2019-03-03T01:59:37.548Z,24.7
2019-03-03T02:00:39.959Z,24.7
2019-03-03T02:01:42.389Z,24.6
2019-03-03T02:02:44.575Z,24.6
2019-03-03T02:03:46.751Z,24.6
2019-03-03T02:04:48.903Z,24.6
2019-03-03T02:05:51.341Z,24.5
2019-03-03T02:06:53.776Z,24.5
2019-03-03T02:07:55.914Z,24.5
2019-03-03T02:08:58.345Z,24.5
2019-03-03T02:10:00.769Z,24.4
2019-03-03T02:11:03.195Z,24.4
2019-03-03T02:12:05.096Z,24.4
2019-03-03T02:13:07.531Z,24.4
2019-03-03T02:14:09.967Z,24.4
2019-03-03T02:15:12.116Z,24.3
2019-03-03T02:16:14.548Z,24.3
2019-03-03T02:17:16.415Z,24.3
2019-03-03T02:18:18.842Z,24.3
2019-03-03T02:19:21.271Z,24.3
2019-03-03T02:20:23.710Z,24.3
2019-03-03T02:21:26.148Z,24.2
2019-03-03T02:22:28.276Z,24.2
2019-03-03T02:23:30.445Z,24.2
2019-03-03T02:24:32.341Z,24.2
2019-03-03T02:25:34.765Z,24.2
2019-03-03T02:26:37.190Z,24.2
2019-03-03T02:27:39.334Z,24.2
2019-03-03T02:28:41.764Z,24.2
2019-03-03T02:29:44.188Z,24.1
2019-03-03T02:30:46.617Z,24.1
2019-03-03T02:31:48.494Z,24.1
2019-03-03T02:32:50.938Z,24.1
2019-03-03T02:33:53.372Z,24.1
2019-03-03T02:34:55.806Z,24.1
2019-03-03T02:35:58.242Z,24.1
2019-03-03T02:37:00.689Z,24.1
2019-03-03T02:38:03.149Z,24.1
2019-03-03T02:39:05.582Z,24.1
2019-03-03T02:40:07.730Z,24.1
2019-03-03T02:41:10.177Z,24.1
2019-03-03T02:42:12.080Z,24.1
2019-03-03T02:43:14.229Z,24.1
2019-03-03T02:44:16.655Z,24
2019-03-03T02:45:19.112Z,24.1
2019-03-03T02:46:21.540Z,24
2019-03-03T02:47:23.768Z,24
2019-03-03T02:48:25.924Z,24
2019-03-03T02:49:28.113Z,24
2019-03-03T02:50:30.539Z,24
2019-03-03T02:51:32.957Z,24
2019-03-03T02:52:35.396Z,24
2019-03-03T02:53:37.301Z,24
2019-03-03T02:54:39.730Z,24
2019-03-03T02:55:42.164Z,24
2019-03-03T02:56:44.311Z,24
2019-03-03T02:57:46.734Z,24
2019-03-03T02:58:48.908Z,24
2019-03-03T02:59:50.773Z,24
2019-03-03T03:00:53.199Z,24
2019-03-03T03:01:55.625Z,24
2019-03-03T03:02:58.070Z,24
2019-03-03T03:04:00.531Z,24
2019-03-03T03:05:02.962Z,24
2019-03-03T03:06:05.111Z,24
2019-03-03T03:07:07.274Z,24
2019-03-03T03:08:08.894Z,24
2019-03-03T03:09:11.322Z,24
2019-03-03T03:10:13.455Z,24
2019-03-03T03:11:15.871Z,24
2019-03-03T03:12:18.039Z,24
2019-03-03T03:13:20.469Z,24
2019-03-03T03:14:22.623Z,24
2019-03-03T03:15:24.759Z,24
2019-03-03T03:16:27.188Z,24
2019-03-03T03:17:29.609Z,24
2019-03-03T03:18:32.042Z,23.9
2019-03-03T03:19:34.474Z,23.9
2019-03-03T03:20:36.896Z,23.9
2019-03-03T03:21:39.049Z,23.9
2019-03-03T03:22:41.478Z,23.9
2019-03-03T03:23:43.626Z,23.9
2019-03-03T03:24:46.052Z,23.9
2019-03-03T03:25:48.221Z,23.9
2019-03-03T03:26:50.377Z,23.9
2019-03-03T03:27:52.526Z,23.9
2019-03-03T03:28:54.666Z,23.9
2019-03-03T03:29:56.808Z,23.9
2019-03-03T03:30:58.950Z,23.9
2019-03-03T03:32:01.501Z,23.9
2019-03-03T03:33:03.714Z,23.9
2019-03-03T03:34:06.184Z,23.9
2019-03-03T03:35:08.328Z,23.9
2019-03-03T03:36:10.743Z,23.9
2019-03-03T03:37:13.168Z,23.9
2019-03-03T03:38:15.601Z,23.9
2019-03-03T03:39:18.031Z,23.9
2019-03-03T03:40:20.460Z,23.9
2019-03-03T03:41:22.887Z,23.9
2019-03-03T03:42:25.316Z,23.9
2019-03-03T03:43:27.745Z,23.9
2019-03-03T03:44:30.167Z,23.9
2019-03-03T03:45:32.591Z,23.9
2019-03-03T03:46:34.742Z,23.9
2019-03-03T03:47:37.191Z,23.9
2019-03-03T03:48:39.617Z,23.9
2019-03-03T03:49:42.049Z,23.9
2019-03-03T03:50:43.925Z,23.9
2019-03-03T03:51:46.082Z,23.9
2019-03-03T03:52:48.503Z,23.9
2019-03-03T03:53:50.938Z,23.9
2019-03-03T03:54:53.370Z,23.9
2019-03-03T03:55:55.861Z,23.9
2019-03-03T03:56:58.145Z,23.9
2019-03-03T03:58:00.568Z,23.9
2019-03-03T03:59:03.001Z,23.9
2019-03-03T04:00:05.437Z,23.9
2019-03-03T04:01:07.877Z,23.9
2019-03-03T04:02:09.477Z,23.9
2019-03-03T04:03:11.980Z,23.9
2019-03-03T04:04:14.390Z,23.9
2019-03-03T04:05:16.817Z,23.9
2019-03-03T04:06:18.980Z,23.9
2019-03-03T04:07:21.417Z,23.9
2019-03-03T04:08:23.857Z,23.9
2019-03-03T04:09:26.025Z,23.9
2019-03-03T04:10:28.177Z,23.9
2019-03-03T04:11:30.652Z,23.9
2019-03-03T04:12:33.091Z,23.9
2019-03-03T04:13:35.515Z,23.9
2019-03-03T04:14:37.968Z,23.9
2019-03-03T04:15:40.392Z,23.9
2019-03-03T04:16:42.548Z,23.9
2019-03-03T04:17:44.970Z,23.9
2019-03-03T04:18:47.401Z,23.9
2019-03-03T04:19:49.828Z,23.9
2019-03-03T04:20:52.263Z,23.9
2019-03-03T04:21:54.414Z,23.9
2019-03-03T04:22:56.851Z,23.9
2019-03-03T04:23:59.284Z,23.9
2019-03-03T04:25:01.709Z,23.9
2019-03-03T04:26:04.149Z,23.9
2019-03-03T04:27:06.317Z,23.9
2019-03-03T04:28:08.466Z,23.9
2019-03-03T04:29:10.889Z,23.9
2019-03-03T04:30:12.776Z,23.9
2019-03-03T04:31:15.201Z,23.9
2019-03-03T04:32:17.367Z,23.9
2019-03-03T04:33:19.543Z,23.9
2019-03-03T04:34:21.713Z,23.9
2019-03-03T04:35:24.143Z,23.9
2019-03-03T04:36:26.562Z,23.9
2019-03-03T04:37:28.416Z,23.9
2019-03-03T04:38:30.857Z,23.9
2019-03-03T04:39:32.986Z,23.9
2019-03-03T04:40:35.424Z,23.9
2019-03-03T04:41:37.579Z,23.9
2019-03-03T04:42:39.470Z,23.9
2019-03-03T04:43:41.622Z,23.9
2019-03-03T04:44:43.788Z,23.9
2019-03-03T04:45:46.214Z,23.9
2019-03-03T04:46:48.681Z,23.9
2019-03-03T04:47:51.101Z,23.9
2019-03-03T04:48:53.519Z,23.9
2019-03-03T04:49:55.399Z,23.9
2019-03-03T04:50:57.547Z,23.9
2019-03-03T04:51:59.701Z,23.9
2019-03-03T04:53:01.831Z,23.9
2019-03-03T04:54:03.959Z,23.9
2019-03-03T04:55:06.109Z,23.9
2019-03-03T04:56:08.521Z,23.8
2019-03-03T04:57:10.937Z,23.9
2019-03-03T04:58:13.363Z,23.9
2019-03-03T04:59:15.241Z,23.9
2019-03-03T05:00:17.665Z,23.8
2019-03-03T05:01:19.809Z,23.8
2019-03-03T05:02:22.231Z,23.8
2019-03-03T05:03:24.386Z,23.9
2019-03-03T05:04:26.557Z,23.8
2019-03-03T05:05:28.437Z,23.8
2019-03-03T05:06:30.593Z,23.8
2019-03-03T05:07:32.743Z,23.8
2019-03-03T05:08:34.910Z,23.8
2019-03-03T05:09:37.337Z,23.8
2019-03-03T05:10:39.767Z,23.8
2019-03-03T05:11:41.647Z,23.8
2019-03-03T05:12:44.102Z,23.8
2019-03-03T05:13:46.525Z,23.8
2019-03-03T05:14:48.686Z,23.8
2019-03-03T05:15:51.159Z,23.8
2019-03-03T05:16:53.293Z,23.8
2019-03-03T05:17:55.178Z,23.8
2019-03-03T05:18:57.611Z,23.8
2019-03-03T05:20:00.049Z,23.8
2019-03-03T05:21:02.523Z,23.9
2019-03-03T05:22:04.944Z,23.9
2019-03-03T05:23:07.098Z,23.9
2019-03-03T05:24:09.518Z,23.8
2019-03-03T05:25:11.943Z,23.9
2019-03-03T05:26:14.369Z,23.9
2019-03-03T05:27:16.801Z,23.9
2019-03-03T05:28:19.217Z,23.9
2019-03-03T05:29:21.369Z,23.9
2019-03-03T05:30:23.796Z,23.9
2019-03-03T05:31:26.235Z,23.9
2019-03-03T05:32:30.812Z,23.9
2019-03-03T05:33:32.967Z,23.9
2019-03-03T05:34:35.411Z,23.9
2019-03-03T05:35:37.835Z,23.9
2019-03-03T05:36:39.995Z,23.9
2019-03-03T05:37:41.876Z,23.9
2019-03-03T05:38:43.455Z,23.9
2019-03-03T05:39:45.619Z,23.9
2019-03-03T05:40:47.795Z,23.9
2019-03-03T05:41:50.225Z,23.9
2019-03-03T05:42:52.645Z,23.9
2019-03-03T05:43:55.076Z,23.9
2019-03-03T05:44:57.493Z,23.9
2019-03-03T05:45:59.350Z,23.9
2019-03-03T05:47:01.209Z,23.8
2019-03-03T05:48:03.379Z,23.9
2019-03-03T05:49:05.519Z,23.9
2019-03-03T05:50:07.650Z,23.9
2019-03-03T05:51:09.792Z,23.9
2019-03-03T05:52:12.223Z,23.8
2019-03-03T05:53:14.365Z,23.9
2019-03-03T05:54:16.520Z,23.9
2019-03-03T05:55:18.680Z,23.8
2019-03-03T05:56:21.113Z,23.8
2019-03-03T05:57:23.269Z,23.8
2019-03-03T05:58:25.707Z,23.8
2019-03-03T05:59:28.131Z,23.8
2019-03-03T06:00:30.558Z,23.8
2019-03-03T06:01:32.996Z,23.8
2019-03-03T06:02:35.445Z,23.8
2019-03-03T06:03:37.603Z,23.8
2019-03-03T06:04:40.048Z,23.8
2019-03-03T06:05:41.959Z,23.8
2019-03-03T06:06:44.405Z,23.8
2019-03-03T06:07:46.847Z,23.8
2019-03-03T06:08:48.999Z,23.8
2019-03-03T06:09:51.421Z,23.8
2019-03-03T06:10:53.849Z,23.8
2019-03-03T06:11:56.288Z,23.8
2019-03-03T06:12:58.708Z,23.8
2019-03-03T06:14:00.300Z,23.8
2019-03-03T06:15:02.728Z,23.8
2019-03-03T06:16:05.153Z,23.8
2019-03-03T06:17:07.575Z,23.8
2019-03-03T06:18:09.993Z,23.8
2019-03-03T06:19:12.129Z,23.8
2019-03-03T06:20:14.556Z,23.8
2019-03-03T06:21:16.696Z,23.8
2019-03-03T06:22:18.845Z,23.8
2019-03-03T06:23:20.987Z,23.8
2019-03-03T06:24:23.137Z,23.8
2019-03-03T06:25:25.582Z,23.8
2019-03-03T06:26:28.011Z,23.8
2019-03-03T06:27:30.188Z,23.8
2019-03-03T06:28:32.617Z,23.8
2019-03-03T06:29:34.504Z,23.8
2019-03-03T06:30:36.637Z,23.8
2019-03-03T06:31:39.068Z,23.8
2019-03-03T06:32:41.227Z,23.8
2019-03-03T06:33:43.438Z,23.8
2019-03-03T06:34:45.616Z,23.8
2019-03-03T06:35:48.032Z,23.8
2019-03-03T06:36:50.450Z,23.8
2019-03-03T06:37:52.880Z,23.8
2019-03-03T06:38:55.309Z,23.8
2019-03-03T06:39:57.730Z,23.8
2019-03-03T06:41:00.150Z,23.8
2019-03-03T06:42:02.318Z,23.8
2019-03-03T06:43:04.749Z,23.8
2019-03-03T06:44:07.179Z,23.8
2019-03-03T06:45:09.084Z,23.8
2019-03-03T06:46:10.958Z,23.8
2019-03-03T06:47:13.131Z,23.8
2019-03-03T06:48:15.279Z,23.8
2019-03-03T06:49:17.159Z,23.8
2019-03-03T06:50:19.595Z,23.8
2019-03-03T06:51:22.026Z,23.8
2019-03-03T06:52:23.884Z,23.8
2019-03-03T06:53:26.058Z,23.8
2019-03-03T06:54:28.203Z,23.8
2019-03-03T06:55:30.452Z,23.8
2019-03-03T06:56:32.650Z,23.8
2019-03-03T06:57:34.529Z,23.8
2019-03-03T06:58:36.984Z,23.9
2019-03-03T06:59:39.412Z,23.9
2019-03-03T07:00:41.849Z,23.9
2019-03-03T07:01:44.274Z,23.8
2019-03-03T07:02:46.128Z,23.8
2019-03-03T07:03:48.293Z,23.8
2019-03-03T07:04:50.466Z,23.8
2019-03-03T07:05:52.378Z,23.8
2019-03-03T07:06:54.801Z,23.8
2019-03-03T07:07:57.226Z,23.8
2019-03-03T07:08:59.381Z,23.8
2019-03-03T07:10:00.988Z,23.8
2019-03-03T07:11:03.140Z,23.8
2019-03-03T07:12:05.584Z,23.8
2019-03-03T07:13:07.744Z,23.8
2019-03-03T07:14:10.216Z,23.8
2019-03-03T07:15:12.358Z,23.8
2019-03-03T07:16:14.786Z,23.8
2019-03-03T07:17:17.212Z,23.8
2019-03-03T07:18:19.360Z,23.8
2019-03-03T07:19:21.238Z,23.8
2019-03-03T07:20:23.669Z,23.8
2019-03-03T07:21:25.540Z,23.8
2019-03-03T07:22:27.712Z,23.8
2019-03-03T07:23:29.879Z,23.8
2019-03-03T07:24:32.080Z,23.8
2019-03-03T07:25:34.499Z,23.8
2019-03-03T07:26:36.654Z,23.8
2019-03-03T07:27:38.824Z,23.8
2019-03-03T07:28:40.987Z,23.8
2019-03-03T07:29:43.108Z,23.8
2019-03-03T07:30:45.546Z,23.8
2019-03-03T07:31:47.967Z,23.8
2019-03-03T07:32:50.392Z,23.8
2019-03-03T07:33:52.835Z,23.8
2019-03-03T07:34:55.268Z,23.8
2019-03-03T07:35:57.424Z,23.8
2019-03-03T07:36:59.558Z,23.8
2019-03-03T07:38:01.990Z,23.8
2019-03-03T07:39:04.419Z,23.8
2019-03-03T07:40:06.735Z,23.8
2019-03-03T07:41:09.115Z,23.8
2019-03-03T07:42:11.247Z,23.8
2019-03-03T07:43:13.412Z,23.8
2019-03-03T07:44:15.574Z,23.8
2019-03-03T07:45:18.066Z,23.8
2019-03-03T07:46:20.540Z,23.8
2019-03-03T07:47:23.014Z,23.8
2019-03-03T07:48:25.434Z,23.8
2019-03-03T07:49:27.867Z,23.8
2019-03-03T07:50:30.044Z,23.8
2019-03-03T07:51:32.471Z,23.8
2019-03-03T07:52:34.908Z,23.8
2019-03-03T07:53:37.065Z,23.8
2019-03-03T07:54:39.512Z,23.8
2019-03-03T07:55:41.940Z,23.8
2019-03-03T07:56:44.365Z,23.8
2019-03-03T07:57:47.938Z,23.8
2019-03-03T07:58:50.371Z,23.8
2019-03-03T07:59:52.270Z,23.8
2019-03-03T08:00:54.405Z,23.8
2019-03-03T08:01:56.837Z,23.8
2019-03-03T08:02:59.269Z,23.8
2019-03-03T08:04:01.715Z,23.8
2019-03-03T08:05:04.151Z,23.8
2019-03-03T08:06:06.297Z,23.8
2019-03-03T08:07:08.743Z,23.8
2019-03-03T08:08:10.909Z,23.8
2019-03-03T08:09:13.370Z,23.8
2019-03-03T08:10:15.799Z,23.8
2019-03-03T08:11:18.231Z,23.8
2019-03-03T08:12:20.661Z,23.8
2019-03-03T08:13:23.090Z,23.8
2019-03-03T08:14:25.512Z,23.8
2019-03-03T08:15:27.945Z,23.8
2019-03-03T08:16:30.382Z,23.8
2019-03-03T08:17:32.800Z,23.8
2019-03-03T08:18:34.671Z,23.8
2019-03-03T08:19:36.825Z,23.8
2019-03-03T08:20:40.125Z,23.8
2019-03-03T08:21:43.414Z,23.8
2019-03-03T08:22:45.590Z,23.8
2019-03-03T08:23:47.760Z,23.8
2019-03-03T08:24:51.883Z,23.8
2019-03-03T08:25:54.030Z,23.8
2019-03-03T08:26:56.477Z,23.8
2019-03-03T08:27:58.920Z,23.8
2019-03-03T08:29:01.066Z,23.8
2019-03-03T08:30:03.230Z,23.8
2019-03-03T08:31:05.674Z,23.8
2019-03-03T08:32:07.829Z,23.8
2019-03-03T08:33:10.258Z,23.8
2019-03-03T08:34:12.676Z,23.8
2019-03-03T08:35:15.112Z,23.8
2019-03-03T08:36:17.544Z,23.8
2019-03-03T08:37:19.759Z,23.8
2019-03-03T08:38:22.208Z,23.8
2019-03-03T08:39:24.369Z,23.8
2019-03-03T08:40:26.823Z,23.8
2019-03-03T08:41:29.280Z,23.8
2019-03-03T08:42:31.711Z,23.8
2019-03-03T08:43:34.145Z,23.8
2019-03-03T08:44:36.574Z,23.8
2019-03-03T08:45:38.736Z,23.8
2019-03-03T08:46:41.265Z,23.8
2019-03-03T08:48:48.938Z,23.8
2019-03-03T08:49:51.109Z,23.8
2019-03-03T08:50:52.979Z,23.8
2019-03-03T08:51:55.139Z,23.8
2019-03-03T08:52:57.307Z,23.8
2019-03-03T08:53:59.470Z,23.8
2019-03-03T08:55:01.893Z,23.8
2019-03-03T08:56:04.083Z,23.8
2019-03-03T08:57:06.521Z,23.8
2019-03-03T08:58:08.675Z,23.8
2019-03-03T08:59:11.114Z,23.8
2019-03-03T09:00:13.533Z,23.8
2019-03-03T09:01:15.688Z,23.8
2019-03-03T09:02:18.130Z,23.8
2019-03-03T09:03:20.565Z,23.8
2019-03-03T09:04:23.020Z,23.8
2019-03-03T09:05:25.461Z,23.8
2019-03-03T09:06:27.929Z,23.8
2019-03-03T09:07:30.359Z,23.8
2019-03-03T09:08:32.518Z,23.8
2019-03-03T09:09:34.942Z,23.8
2019-03-03T09:10:37.082Z,23.8
2019-03-03T09:11:39.508Z,23.8
2019-03-03T09:12:41.951Z,23.8
2019-03-03T09:13:44.387Z,23.8
2019-03-03T09:14:46.591Z,23.8
2019-03-03T09:15:48.758Z,23.8
2019-03-03T09:16:50.919Z,23.8
2019-03-03T09:17:53.367Z,23.8
2019-03-03T09:18:55.550Z,23.8
2019-03-03T09:19:57.990Z,23.8
2019-03-03T09:21:00.414Z,23.8
2019-03-03T09:22:04.590Z,23.8
2019-03-03T09:23:07.157Z,23.8
2019-03-03T09:24:09.313Z,23.8
2019-03-03T09:25:11.732Z,23.8
2019-03-03T09:26:14.169Z,23.8
2019-03-03T09:27:16.077Z,23.8
2019-03-03T09:28:18.249Z,23.8
2019-03-03T09:29:20.689Z,23.8
2019-03-03T09:30:23.122Z,23.8
2019-03-03T09:31:25.547Z,23.8
2019-03-03T09:32:27.981Z,23.8
2019-03-03T09:33:30.148Z,23.8
2019-03-03T09:34:32.587Z,23.8
2019-03-03T09:35:35.035Z,23.8
2019-03-03T09:36:37.183Z,23.8
2019-03-03T09:37:39.637Z,23.8
2019-03-03T09:38:42.061Z,23.8
2019-03-03T09:39:44.479Z,23.8
2019-03-03T09:40:46.908Z,23.8
2019-03-03T09:41:49.338Z,23.8
2019-03-03T09:42:51.482Z,23.8
2019-03-03T09:43:53.921Z,23.8
2019-03-03T09:44:56.061Z,23.8
2019-03-03T09:45:58.513Z,23.8
2019-03-03T09:47:00.935Z,23.8
2019-03-03T09:48:03.365Z,23.8
2019-03-03T09:49:05.811Z,23.8
2019-03-03T09:50:08.239Z,23.8
2019-03-03T09:51:10.407Z,23.8
2019-03-03T09:52:12.837Z,23.8
2019-03-03T09:53:15.263Z,23.8
2019-03-03T09:54:17.698Z,23.8
2019-03-03T09:55:20.135Z,23.8
2019-03-03T09:56:22.018Z,23.8
2019-03-03T09:57:24.438Z,23.8
2019-03-03T09:58:26.625Z,23.8
2019-03-03T09:59:29.052Z,23.8
2019-03-03T10:00:31.468Z,23.8
2019-03-03T10:01:33.618Z,23.8
2019-03-03T10:02:35.787Z,23.8
2019-03-03T10:03:37.973Z,23.8
2019-03-03T10:04:39.860Z,23.8
2019-03-03T10:05:42.019Z,23.8
2019-03-03T10:06:44.188Z,23.8
2019-03-03T10:07:46.631Z,23.8
2019-03-03T10:08:48.779Z,23.8
2019-03-03T10:09:50.647Z,23.8
2019-03-03T10:10:52.846Z,23.8
2019-03-03T10:11:55.023Z,23.8
2019-03-03T10:12:57.446Z,23.8
2019-03-03T10:13:59.878Z,23.8
2019-03-03T10:15:02.315Z,23.8
2019-03-03T10:16:04.741Z,23.8
2019-03-03T10:17:06.630Z,23.8
2019-03-03T10:18:09.076Z,23.8
2019-03-03T10:19:11.500Z,23.8
2019-03-03T10:20:13.663Z,23.8
2019-03-03T10:21:16.087Z,23.8
2019-03-03T10:22:18.231Z,23.8
2019-03-03T10:23:20.138Z,23.8
2019-03-03T10:24:22.581Z,23.8
2019-03-03T10:25:24.720Z,23.8
2019-03-03T10:26:27.178Z,23.8
2019-03-03T10:27:29.597Z,23.8
2019-03-03T10:28:32.031Z,23.8
2019-03-03T10:29:34.456Z,23.8
2019-03-03T10:30:36.629Z,23.8
2019-03-03T10:31:38.492Z,23.8
2019-03-03T10:32:40.380Z,23.8
2019-03-03T10:33:42.538Z,23.8
2019-03-03T10:34:44.682Z,23.8
2019-03-03T10:35:46.840Z,23.8
2019-03-03T10:36:49.291Z,23.8
2019-03-03T10:37:51.719Z,23.8
2019-03-03T10:38:53.599Z,23.8
2019-03-03T10:39:56.068Z,23.8
2019-03-03T10:40:58.501Z,23.8
2019-03-03T10:42:00.647Z,23.8
2019-03-03T10:43:02.799Z,23.8
2019-03-03T10:44:05.223Z,23.8
2019-03-03T10:45:07.375Z,23.8
2019-03-03T10:46:09.803Z,23.8
2019-03-03T10:47:12.243Z,23.8
2019-03-03T10:48:14.672Z,23.8
2019-03-03T10:49:16.826Z,23.8
2019-03-03T10:50:19.247Z,23.8
2019-03-03T10:51:21.678Z,23.8
2019-03-03T10:52:23.862Z,23.8
2019-03-03T10:53:26.291Z,23.8
2019-03-03T10:54:28.159Z,23.8
2019-03-03T10:55:30.590Z,23.8
2019-03-03T10:56:32.724Z,23.8
2019-03-03T10:57:35.193Z,23.8
2019-03-03T10:58:37.346Z,23.8
2019-03-03T10:59:39.800Z,23.8
2019-03-03T11:00:41.953Z,23.8
2019-03-03T11:01:44.389Z,23.8
2019-03-03T11:02:46.532Z,23.8
2019-03-03T11:03:48.965Z,23.8
2019-03-03T11:04:51.151Z,23.8
2019-03-03T11:05:53.300Z,23.8
2019-03-03T11:06:55.741Z,23.8
2019-03-03T11:07:57.894Z,23.8
2019-03-03T11:09:00.342Z,23.8
2019-03-03T11:10:02.518Z,23.8
2019-03-03T11:11:04.929Z,23.8
2019-03-03T11:12:07.357Z,23.8
2019-03-03T11:13:09.779Z,23.8
2019-03-03T11:14:12.225Z,23.8
2019-03-03T11:16:19.357Z,23.8
2019-03-03T11:17:21.791Z,23.8
2019-03-03T11:18:23.939Z,23.9
2019-03-03T11:19:26.089Z,23.8
2019-03-03T11:20:28.515Z,23.8
2019-03-03T11:21:30.723Z,23.9
2019-03-03T11:22:33.140Z,23.8
2019-03-03T11:23:35.571Z,23.9
2019-03-03T11:24:37.727Z,23.8
2019-03-03T11:25:39.901Z,23.8
2019-03-03T11:26:42.351Z,23.8
2019-03-03T11:27:44.780Z,23.9
2019-03-03T11:28:46.934Z,23.8
2019-03-03T11:29:48.810Z,23.8
2019-03-03T11:30:51.241Z,23.8
2019-03-03T11:31:53.669Z,23.8
2019-03-03T11:32:56.106Z,23.9
2019-03-03T11:33:58.525Z,23.9
2019-03-03T11:35:00.702Z,23.8
2019-03-03T11:36:03.118Z,23.8
2019-03-03T11:37:04.987Z,23.8
2019-03-03T11:38:06.841Z,23.8
2019-03-03T11:39:09.270Z,23.8
2019-03-03T11:40:11.409Z,23.8
2019-03-03T11:41:13.581Z,23.8
2019-03-03T11:42:16.011Z,23.8
2019-03-03T11:43:18.454Z,23.8
2019-03-03T11:44:20.632Z,23.8
2019-03-03T11:45:22.806Z,23.8
2019-03-03T11:46:24.972Z,23.8
2019-03-03T11:47:27.392Z,23.8
2019-03-03T11:48:29.549Z,23.8
2019-03-03T11:49:31.722Z,23.8
2019-03-03T11:50:34.161Z,23.8
2019-03-03T11:51:36.603Z,23.8
2019-03-03T11:52:39.029Z,23.8
2019-03-03T11:53:41.460Z,23.8
2019-03-03T11:54:43.621Z,23.8
2019-03-03T11:55:46.050Z,23.8
2019-03-03T11:56:48.474Z,23.8
2019-03-03T11:57:50.897Z,23.8
2019-03-03T11:58:53.073Z,23.8
2019-03-03T11:59:55.511Z,23.8
2019-03-03T12:00:57.421Z,23.8
2019-03-03T12:01:59.858Z,23.8
2019-03-03T12:03:02.282Z,23.8
2019-03-03T12:04:04.717Z,23.8
2019-03-03T12:05:07.154Z,23.8
2019-03-03T12:06:09.588Z,23.8
2019-03-03T12:07:11.747Z,23.8
2019-03-03T12:08:14.188Z,23.8
2019-03-03T12:09:16.656Z,23.8
2019-03-03T12:10:18.847Z,23.8
2019-03-03T12:11:21.007Z,23.8
2019-03-03T12:12:23.182Z,23.8
2019-03-03T12:13:25.613Z,23.9
2019-03-03T12:14:28.054Z,23.9
2019-03-03T12:15:30.487Z,23.8
2019-03-03T12:16:32.921Z,23.8
2019-03-03T12:17:35.354Z,23.8
2019-03-03T12:18:37.775Z,23.9
2019-03-03T12:19:40.209Z,23.9
2019-03-03T12:20:42.668Z,23.8
2019-03-03T12:21:45.105Z,23.9
2019-03-03T12:22:47.572Z,23.9
2019-03-03T12:23:49.717Z,23.9
2019-03-03T12:24:51.868Z,23.9
2019-03-03T12:25:54.027Z,23.9
2019-03-03T12:26:56.450Z,23.9
2019-03-03T12:27:58.886Z,23.9
2019-03-03T12:29:01.333Z,23.9
2019-03-03T12:30:03.482Z,23.9
2019-03-03T12:31:05.360Z,23.9
2019-03-03T12:32:07.507Z,23.9
2019-03-03T12:33:09.943Z,23.9
2019-03-03T12:34:12.098Z,23.9
2019-03-03T12:35:14.538Z,23.9
2019-03-03T12:36:16.694Z,23.9
2019-03-03T12:37:20.820Z,23.9
2019-03-03T12:38:23.256Z,23.9
2019-03-03T12:39:25.701Z,23.8
2019-03-03T12:40:27.880Z,23.9
2019-03-03T12:41:30.060Z,23.8
2019-03-03T12:42:32.216Z,23.9
2019-03-03T12:43:34.663Z,23.9
2019-03-03T12:44:37.091Z,23.8
2019-03-03T12:45:39.537Z,23.8
2019-03-03T12:46:41.696Z,23.8
2019-03-03T12:47:43.851Z,23.8
2019-03-03T12:48:48.273Z,23.8
2019-03-03T12:49:50.714Z,23.8
2019-03-03T12:50:53.161Z,23.8
2019-03-03T12:51:55.058Z,23.8
2019-03-03T12:52:57.485Z,23.8
2019-03-03T12:53:59.905Z,23.8
2019-03-03T12:55:02.340Z,23.8
2019-03-03T12:56:04.489Z,23.8
2019-03-03T12:57:06.924Z,23.8
2019-03-03T12:58:09.073Z,23.8
2019-03-03T12:59:11.230Z,23.8
2019-03-03T13:00:13.393Z,23.8
2019-03-03T13:01:15.551Z,23.8
2019-03-03T13:02:17.702Z,23.8
2019-03-03T13:03:20.140Z,23.8
2019-03-03T13:04:22.574Z,23.8
2019-03-03T13:05:25.006Z,23.8
2019-03-03T13:06:27.440Z,23.8
2019-03-03T13:07:31.929Z,23.8
2019-03-03T13:08:34.090Z,23.8
2019-03-03T13:09:36.540Z,23.8
2019-03-03T13:10:38.997Z,23.8
2019-03-03T13:11:41.415Z,23.8
2019-03-03T13:12:43.299Z,23.8
2019-03-03T13:13:45.758Z,23.8
2019-03-03T13:14:47.918Z,23.8
2019-03-03T13:15:50.337Z,23.8
2019-03-03T13:16:52.212Z,23.8
2019-03-03T13:17:54.377Z,23.8
2019-03-03T13:18:56.566Z,23.8
2019-03-03T13:19:58.730Z,23.8
2019-03-03T13:21:01.173Z,23.8
2019-03-03T13:22:03.605Z,23.8
2019-03-03T13:23:05.772Z,23.8
2019-03-03T13:24:07.942Z,23.8
2019-03-03T13:25:10.381Z,23.8
2019-03-03T13:26:12.270Z,23.8
2019-03-03T13:27:14.698Z,23.8
2019-03-03T13:28:17.132Z,23.8
2019-03-03T13:29:19.307Z,23.8
2019-03-03T13:30:21.777Z,23.8
2019-03-03T13:31:24.206Z,23.8
2019-03-03T13:32:26.410Z,23.8
2019-03-03T13:33:28.837Z,23.8
2019-03-03T13:34:30.457Z,23.8
2019-03-03T13:35:32.894Z,23.8
2019-03-03T13:36:35.347Z,23.8
2019-03-03T13:37:37.498Z,23.8
2019-03-03T13:38:39.948Z,23.8
2019-03-03T13:39:42.090Z,23.8
2019-03-03T13:40:44.233Z,23.8
2019-03-03T13:41:46.684Z,23.8
2019-03-03T13:42:49.112Z,23.8
2019-03-03T13:43:51.550Z,23.8
2019-03-03T13:44:54.004Z,23.8
2019-03-03T13:45:56.433Z,23.8
2019-03-03T13:46:58.582Z,23.8
2019-03-03T13:48:01.005Z,23.8
2019-03-03T13:49:03.438Z,23.8
2019-03-03T13:50:05.569Z,23.8
2019-03-03T13:51:08.011Z,23.8
2019-03-03T13:52:10.451Z,23.8
2019-03-03T13:53:12.880Z,23.8
2019-03-03T13:54:15.032Z,23.8
2019-03-03T13:55:17.458Z,23.8